createdAt,value
2018-06-17T00:02:12.073Z,14.33
2018-06-17T00:04:41.314Z,13.68
2018-06-17T00:07:10.480Z,13.70
2018-06-17T00:09:39.610Z,13.80
2018-06-17T00:12:08.834Z,14.47
2018-06-17T00:14:38.292Z,13.90
2018-06-17T00:17:07.580Z,16.27
2018-06-17T00:19:36.806Z,14.98
2018-06-17T00:22:06.007Z,14.35
2018-06-17T00:24:35.132Z,14.70
2018-06-17T00:27:04.430Z,14.18
2018-06-17T00:29:33.532Z,13.83
2018-06-17T00:32:02.752Z,13.25
2018-06-17T00:34:31.861Z,14.50
2018-06-17T00:37:00.972Z,14.53
2018-06-17T00:39:30.084Z,13.65
2018-06-17T00:41:59.178Z,13.35
2018-06-17T00:44:28.272Z,13.45
2018-06-17T00:46:57.374Z,14.68
2018-06-17T00:49:26.467Z,14.00
2018-06-17T00:51:55.675Z,14.30
2018-06-17T00:54:24.763Z,12.88
2018-06-17T00:57:05.075Z,13.83
2018-06-17T00:59:33.991Z,13.43
2018-06-17T01:02:02.898Z,13.75
2018-06-17T01:04:31.802Z,14.23
2018-06-17T01:07:00.705Z,15.55
2018-06-17T01:09:29.590Z,13.70
2018-06-17T01:11:58.209Z,12.30
2018-06-17T01:14:27.017Z,13.58
2018-06-17T01:16:55.910Z,13.95
2018-06-17T01:19:24.839Z,12.33
2018-06-17T01:21:53.730Z,13.60
2018-06-17T01:24:22.625Z,12.90
2018-06-17T01:26:51.513Z,13.40
2018-06-17T01:29:20.438Z,14.25
2018-06-17T01:31:49.323Z,13.75
2018-06-17T01:34:18.244Z,12.93
2018-06-17T01:36:47.126Z,13.25
2018-06-17T01:39:16.022Z,13.72
2018-06-17T01:41:44.902Z,13.75
2018-06-17T01:44:13.808Z,14.45
2018-06-17T01:46:42.695Z,13.22
2018-06-17T01:49:11.621Z,14.60
2018-06-17T01:51:40.554Z,13.62
2018-06-17T01:54:09.466Z,15.63
2018-06-17T01:56:40.430Z,13.65
2018-06-17T01:59:09.382Z,13.93
2018-06-17T02:01:38.287Z,14.68
2018-06-17T02:04:12.441Z,12.50
2018-06-17T02:06:46.629Z,16.42
2018-06-17T02:09:20.730Z,16.10
2018-06-17T02:11:55.288Z,14.50
2018-06-17T02:14:29.542Z,14.98
2018-06-17T02:16:58.433Z,15.93
2018-06-17T02:19:27.335Z,15.13
2018-06-17T02:21:56.218Z,14.75
2018-06-17T02:24:25.113Z,14.40
2018-06-17T02:26:54.134Z,15.43
2018-06-17T02:29:23.042Z,15.43
2018-06-17T02:31:51.949Z,15.13
2018-06-17T02:34:20.944Z,16.02
2018-06-17T02:36:49.831Z,15.78
2018-06-17T02:39:18.754Z,13.72
2018-06-17T02:41:47.658Z,15.00
2018-06-17T02:44:16.557Z,14.40
2018-06-17T02:46:50.822Z,13.55
2018-06-17T02:49:24.999Z,14.38
2018-06-17T02:51:59.218Z,14.50
2018-06-17T02:54:30.253Z,14.43
2018-06-17T02:56:59.147Z,15.32
2018-06-17T02:59:27.759Z,15.83
2018-06-17T03:01:56.544Z,14.33
2018-06-17T03:04:25.458Z,15.30
2018-06-17T03:06:54.822Z,14.98
2018-06-17T03:09:23.731Z,13.98
2018-06-17T03:11:52.640Z,16.02
2018-06-17T03:14:21.550Z,14.65
2018-06-17T03:16:50.492Z,17.02
2018-06-17T03:19:19.174Z,14.43
2018-06-17T03:21:47.986Z,15.60
2018-06-17T03:24:16.914Z,15.65
2018-06-17T03:26:51.143Z,15.32
2018-06-17T03:29:25.265Z,17.73
2018-06-17T03:31:59.486Z,15.40
2018-06-17T03:34:28.451Z,16.37
2018-06-17T03:36:57.350Z,15.58
2018-06-17T03:39:26.234Z,16.42
2018-06-17T03:41:55.142Z,18.25
2018-06-17T03:44:24.021Z,16.37
2018-06-17T03:46:52.926Z,16.00
2018-06-17T03:49:21.853Z,16.80
2018-06-17T03:51:50.742Z,15.58
2018-06-17T03:54:19.628Z,15.93
2018-06-17T03:56:48.537Z,15.90
2018-06-17T03:59:17.414Z,15.15
2018-06-17T04:01:46.321Z,16.07
2018-06-17T04:04:15.210Z,14.93
2018-06-17T04:06:44.122Z,14.38
2018-06-17T04:09:13.005Z,13.83
2018-06-17T04:11:41.923Z,14.13
2018-06-17T04:14:10.817Z,15.53
2018-06-17T04:16:39.729Z,15.88
2018-06-17T04:19:08.642Z,13.70
2018-06-17T04:21:37.566Z,14.35
2018-06-17T04:24:06.594Z,13.95
2018-06-17T04:26:35.518Z,12.85
2018-06-17T04:29:04.452Z,13.13
2018-06-17T04:31:33.355Z,13.62
2018-06-17T04:34:02.250Z,13.50
2018-06-17T04:36:31.161Z,13.83
2018-06-17T04:39:00.090Z,13.10
2018-06-17T04:41:28.994Z,13.43
2018-06-17T04:43:57.962Z,13.90
2018-06-17T04:46:26.950Z,13.55
2018-06-17T04:48:55.826Z,13.43
2018-06-17T04:51:24.741Z,13.13
2018-06-17T04:53:53.638Z,12.90
2018-06-17T04:56:22.535Z,13.50
2018-06-17T04:58:51.468Z,14.55
2018-06-17T05:01:20.366Z,15.15
2018-06-17T05:03:49.242Z,12.23
2018-06-17T05:06:17.854Z,14.45
2018-06-17T05:08:46.669Z,13.50
2018-06-17T05:11:15.583Z,14.70
2018-06-17T05:13:45.436Z,15.13
2018-06-17T05:16:14.386Z,15.00
2018-06-17T05:18:43.273Z,15.90
2018-06-17T05:21:12.188Z,17.00
2018-06-17T05:23:41.170Z,15.98
2018-06-17T05:26:10.090Z,17.45
2018-06-17T05:28:38.990Z,15.30
2018-06-17T05:31:07.927Z,15.58
2018-06-17T05:33:36.820Z,14.03
2018-06-17T05:36:05.758Z,15.00
2018-06-17T05:38:34.672Z,14.33
2018-06-17T05:41:03.670Z,13.45
2018-06-17T05:43:32.586Z,13.40
2018-06-17T05:46:01.490Z,15.45
2018-06-17T05:48:30.400Z,15.05
2018-06-17T05:50:59.687Z,13.65
2018-06-17T05:53:28.585Z,14.47
2018-06-17T05:55:57.477Z,13.93
2018-06-17T05:58:26.396Z,14.38
2018-06-17T06:00:55.274Z,12.10
2018-06-17T06:03:25.021Z,13.00
2018-06-17T06:05:54.309Z,12.43
2018-06-17T06:08:23.213Z,11.95
2018-06-17T06:10:52.144Z,11.08
2018-06-17T06:13:21.057Z,11.38
2018-06-17T06:15:49.932Z,10.53
2018-06-17T06:18:18.834Z,10.40
2018-06-17T06:20:48.278Z,9.25
2018-06-17T06:23:17.531Z,10.05
2018-06-17T06:25:46.514Z,9.80
2018-06-17T06:28:16.038Z,9.40
2018-06-17T06:30:44.934Z,8.65
2018-06-17T06:33:13.842Z,8.93
2018-06-17T06:35:42.737Z,9.28
2018-06-17T06:38:11.664Z,9.45
2018-06-17T06:40:40.588Z,9.00
2018-06-17T06:43:09.519Z,9.13
2018-06-17T06:45:38.508Z,10.50
2018-06-17T06:48:07.443Z,7.95
2018-06-17T06:50:36.523Z,6.40
2018-06-17T06:53:05.656Z,6.00
2018-06-17T06:55:34.608Z,6.00
2018-06-17T06:58:03.567Z,9.93
2018-06-17T07:00:32.442Z,6.73
2018-06-17T07:03:12.800Z,6.00
2018-06-17T07:05:53.110Z,5.50
2018-06-17T07:08:33.220Z,10.20
2018-06-17T07:11:02.142Z,6.33
2018-06-17T07:13:31.057Z,5.87
2018-06-17T07:16:11.186Z,6.20
2018-06-17T07:18:41.217Z,6.33
2018-06-17T07:21:10.631Z,6.17
2018-06-17T07:23:39.555Z,5.85
2018-06-17T07:26:34.083Z,7.87
2018-06-17T07:29:14.633Z,6.28
2018-06-17T07:31:43.544Z,7.05
2018-06-17T07:34:13.350Z,6.80
2018-06-17T07:36:42.649Z,5.60
2018-06-17T07:41:20.633Z,5.20
2018-06-17T07:43:49.610Z,5.57
2018-06-17T07:46:18.144Z,6.80
2018-06-17T07:49:56.304Z,5.00
2018-06-17T07:52:37.777Z,5.65
2018-06-17T07:55:06.750Z,6.58
2018-06-17T07:57:35.648Z,5.22
2018-06-17T08:00:10.232Z,5.70
2018-06-17T08:02:39.132Z,5.92
2018-06-17T08:05:08.074Z,5.00
2018-06-17T08:07:37.094Z,5.72
2018-06-17T08:10:06.022Z,8.43
2018-06-17T08:12:34.921Z,5.53
2018-06-17T08:15:03.905Z,5.10
2018-06-17T08:17:32.983Z,5.10
2018-06-17T08:20:01.903Z,4.83
2018-06-17T08:22:30.785Z,5.95
2018-06-17T08:25:00.266Z,5.47
2018-06-17T08:27:29.158Z,6.33
2018-06-17T08:29:58.046Z,6.57
2018-06-17T08:32:27.032Z,5.50
2018-06-17T08:34:55.923Z,5.28
2018-06-17T08:37:24.844Z,5.92
2018-06-17T08:39:54.174Z,7.30
2018-06-17T08:42:23.087Z,7.60
2018-06-17T08:44:52.578Z,6.42
2018-06-17T08:47:21.470Z,6.80
2018-06-17T08:49:50.382Z,6.92
2018-06-17T08:52:19.287Z,6.65
2018-06-17T08:54:48.212Z,5.80
2018-06-17T08:57:17.133Z,7.03
2018-06-17T08:59:46.016Z,8.80
2018-06-17T09:02:14.922Z,7.10
2018-06-17T09:04:43.840Z,6.83
2018-06-17T09:07:12.777Z,7.97
2018-06-17T09:09:41.671Z,6.33
2018-06-17T09:12:10.635Z,9.67
2018-06-17T09:14:39.623Z,9.15
2018-06-17T09:17:08.550Z,6.40
2018-06-17T09:19:38.442Z,7.47
2018-06-17T09:22:07.067Z,6.57
2018-06-17T09:24:35.844Z,7.00
2018-06-17T09:27:04.770Z,5.67
2018-06-17T09:29:33.665Z,9.83
2018-06-17T09:32:02.615Z,5.78
2018-06-17T09:34:31.507Z,5.73
2018-06-17T09:37:00.581Z,7.97
2018-06-17T09:39:29.471Z,7.12
2018-06-17T09:41:58.394Z,6.33
2018-06-17T09:44:27.372Z,6.22
2018-06-17T09:46:56.246Z,7.72
2018-06-17T09:49:25.127Z,5.15
2018-06-17T09:51:54.026Z,5.70
2018-06-17T09:54:22.926Z,4.17
2018-06-17T09:56:51.821Z,8.23
2018-06-17T09:59:20.702Z,6.08
2018-06-17T10:01:49.647Z,6.35
2018-06-17T10:04:18.492Z,6.90
2018-06-17T10:06:47.393Z,9.30
2018-06-17T10:09:16.282Z,4.42
2018-06-17T10:11:45.178Z,7.08
2018-06-17T10:14:14.111Z,5.47
2018-06-17T10:16:43.050Z,4.50
2018-06-17T10:19:11.977Z,5.00
2018-06-17T10:21:40.938Z,5.22
2018-06-17T10:24:09.831Z,4.95
2018-06-17T10:26:38.759Z,4.30
2018-06-17T10:29:07.658Z,4.33
2018-06-17T10:31:36.580Z,4.15
2018-06-17T10:34:05.593Z,5.80
2018-06-17T10:36:34.498Z,7.05
2018-06-17T10:39:03.652Z,4.12
2018-06-17T10:41:32.254Z,8.73
2018-06-17T10:44:01.776Z,4.80
2018-06-17T10:46:30.674Z,5.92
2018-06-17T10:48:59.634Z,6.92
2018-06-17T10:51:28.454Z,5.78
2018-06-17T10:53:57.346Z,5.50
2018-06-17T10:56:26.245Z,5.17
2018-06-17T10:58:55.130Z,7.47
2018-06-17T11:01:24.032Z,7.40
2018-06-17T11:03:52.923Z,6.67
2018-06-17T11:06:21.823Z,3.83
2018-06-17T11:08:50.731Z,3.17
2018-06-17T11:11:19.617Z,5.03
2018-06-17T11:13:48.503Z,4.63
2018-06-17T11:16:17.382Z,3.50
2018-06-17T11:18:46.283Z,4.12
2018-06-17T11:21:15.166Z,4.50
2018-06-17T11:23:44.060Z,7.20
2018-06-17T11:26:12.953Z,4.50
2018-06-17T11:28:41.838Z,4.80
2018-06-17T11:31:10.776Z,3.03
2018-06-17T11:33:39.705Z,4.37
2018-06-17T11:36:08.599Z,5.27
2018-06-17T11:38:37.490Z,3.33
2018-06-17T11:41:06.373Z,6.77
2018-06-17T11:43:35.530Z,4.23
2018-06-17T11:46:04.470Z,4.00
2018-06-17T11:48:33.354Z,4.67
2018-06-17T11:51:02.232Z,4.37
2018-06-17T11:53:31.183Z,6.47
2018-06-17T11:56:00.062Z,4.83
2018-06-17T11:58:29.085Z,4.37
2018-06-17T12:00:57.954Z,5.97
2018-06-17T12:03:26.854Z,5.90
2018-06-17T12:05:55.875Z,4.13
2018-06-17T12:08:24.765Z,5.47
2018-06-17T12:10:53.639Z,9.90
2018-06-17T12:13:24.986Z,4.67
2018-06-17T12:15:53.562Z,4.87
2018-06-17T12:18:22.364Z,9.43
2018-06-17T12:20:51.247Z,4.30
2018-06-17T12:23:20.172Z,6.90
2018-06-17T12:25:49.206Z,4.87
2018-06-17T12:28:18.110Z,6.47
2018-06-17T12:30:47.153Z,5.20
2018-06-17T12:33:16.130Z,6.17
2018-06-17T12:35:45.015Z,4.50
2018-06-17T12:38:13.919Z,5.57
2018-06-17T12:40:42.550Z,7.13
2018-06-17T12:43:11.341Z,5.33
2018-06-17T12:45:40.254Z,5.00
2018-06-17T12:48:09.169Z,4.83
2018-06-17T12:50:38.055Z,3.77
2018-06-17T12:53:06.994Z,4.80
2018-06-17T12:55:36.619Z,6.40
2018-06-17T12:58:05.642Z,4.93
2018-06-17T13:00:34.631Z,5.13
2018-06-17T13:03:03.846Z,3.83
2018-06-17T13:05:32.837Z,3.83
2018-06-17T13:08:02.094Z,4.30
2018-06-17T13:10:30.998Z,4.10
2018-06-17T13:12:59.927Z,4.43
2018-06-17T13:15:28.807Z,4.73
2018-06-17T13:17:57.442Z,3.63
2018-06-17T13:20:26.215Z,3.37
2018-06-17T13:22:55.110Z,3.83
2018-06-17T13:25:24.166Z,2.90
2018-06-17T13:27:53.061Z,2.53
2018-06-17T13:30:21.950Z,2.70
2018-06-17T13:32:50.868Z,2.40
2018-06-17T13:35:19.746Z,2.90
2018-06-17T13:37:48.890Z,4.80
2018-06-17T13:40:17.776Z,2.70
2018-06-17T13:42:46.704Z,3.20
2018-06-17T13:45:15.667Z,3.77
2018-06-17T13:47:44.918Z,2.50
2018-06-17T13:50:13.886Z,2.50
2018-06-17T13:52:42.855Z,3.63
2018-06-17T13:55:11.835Z,3.13
2018-06-17T13:57:40.975Z,3.97
2018-06-17T14:00:10.601Z,2.10
2018-06-17T14:02:39.757Z,1.97
2018-06-17T14:05:08.654Z,3.67
2018-06-17T14:07:37.591Z,2.33
2018-06-17T14:10:06.841Z,3.30
2018-06-17T14:12:35.865Z,2.43
2018-06-17T14:15:05.100Z,4.50
2018-06-17T14:17:36.302Z,2.40
2018-06-17T14:20:06.411Z,2.37
2018-06-17T14:22:35.444Z,2.17
2018-06-17T14:25:04.535Z,2.27
2018-06-17T14:27:33.419Z,2.10
2018-06-17T14:30:02.789Z,4.40
2018-06-17T14:32:31.670Z,2.73
2018-06-17T14:35:00.601Z,2.47
2018-06-17T14:37:29.501Z,3.23
2018-06-17T14:39:58.434Z,2.47
2018-06-17T14:42:32.559Z,4.13
2018-06-17T14:45:07.100Z,3.77
2018-06-17T14:47:41.487Z,2.17
2018-06-17T14:50:15.705Z,3.60
2018-06-17T14:52:49.942Z,4.50
2018-06-17T14:55:18.846Z,2.10
2018-06-17T14:57:47.847Z,2.23
2018-06-17T15:00:16.743Z,2.10
2018-06-17T15:02:45.647Z,2.20
2018-06-17T15:05:14.526Z,2.73
2018-06-17T15:07:43.410Z,5.03
2018-06-17T15:10:12.331Z,2.20
2018-06-17T15:12:41.269Z,2.87
2018-06-17T15:15:10.176Z,2.43
2018-06-17T15:17:39.080Z,2.60
2018-06-17T15:20:08.144Z,3.10
2018-06-17T15:22:36.999Z,1.77
2018-06-17T15:25:05.942Z,1.67
2018-06-17T15:27:34.814Z,1.80
2018-06-17T15:30:04.058Z,2.27
2018-06-17T15:32:38.456Z,3.60
2018-06-17T15:35:12.555Z,1.73
2018-06-17T15:37:46.634Z,1.87
2018-06-17T15:40:15.931Z,2.17
2018-06-17T15:42:44.830Z,4.03
2018-06-17T15:45:13.750Z,1.70
2018-06-17T15:47:42.647Z,1.80
2018-06-17T15:50:11.567Z,2.10
2018-06-17T15:52:40.562Z,2.30
2018-06-17T15:55:09.220Z,2.00
2018-06-17T15:57:38.083Z,2.30
2018-06-17T16:00:06.986Z,4.70
2018-06-17T16:02:35.863Z,5.63
2018-06-17T16:05:04.854Z,1.70
2018-06-17T16:07:33.713Z,1.93
2018-06-17T16:10:02.635Z,3.93
2018-06-17T16:12:36.749Z,1.93
2018-06-17T16:15:11.047Z,2.33
2018-06-17T16:17:45.450Z,2.30
2018-06-17T16:20:19.687Z,1.60
2018-06-17T16:22:48.590Z,2.60
2018-06-17T16:25:17.488Z,2.50
2018-06-17T16:27:46.374Z,1.60
2018-06-17T16:30:15.279Z,2.60
2018-06-17T16:32:44.158Z,1.50
2018-06-17T16:35:13.257Z,1.90
2018-06-17T16:37:42.134Z,6.23
2018-06-17T16:40:11.039Z,2.37
2018-06-17T16:42:39.960Z,1.67
2018-06-17T16:45:08.853Z,2.30
2018-06-17T16:47:37.935Z,1.70
2018-06-17T16:50:06.875Z,1.60
2018-06-17T16:52:41.301Z,3.70
2018-06-17T16:55:15.595Z,2.10
2018-06-17T16:57:49.834Z,3.90
2018-06-17T17:00:20.699Z,2.00
2018-06-17T17:02:49.710Z,4.37
2018-06-17T17:05:18.606Z,3.07
2018-06-17T17:07:47.534Z,1.93
2018-06-17T17:10:16.435Z,4.50
2018-06-17T17:12:45.334Z,3.00
2018-06-17T17:15:14.426Z,2.43
2018-06-17T17:17:43.324Z,1.50
2018-06-17T17:20:12.226Z,1.63
2018-06-17T17:22:41.154Z,1.90
2018-06-17T17:25:10.098Z,2.40
2018-06-17T17:27:39.123Z,2.80
2018-06-17T17:30:08.119Z,4.30
2018-06-17T17:32:42.215Z,1.73
2018-06-17T17:35:16.372Z,2.57
2018-06-17T17:37:50.727Z,1.90
2018-06-17T17:40:24.949Z,2.83
2018-06-17T17:42:53.859Z,2.53
2018-06-17T17:45:23.974Z,6.57
2018-06-17T17:47:52.894Z,3.00
2018-06-17T17:50:21.972Z,4.87
2018-06-17T17:52:51.501Z,2.33
2018-06-17T17:55:20.414Z,2.90
2018-06-17T17:57:53.823Z,2.40
2018-06-17T18:00:22.750Z,1.80
2018-06-17T18:02:51.717Z,1.50
2018-06-17T18:05:20.699Z,3.60
2018-06-17T18:07:50.247Z,1.80
2018-06-17T18:10:21.250Z,1.87
2018-06-17T18:12:50.178Z,3.83
2018-06-17T18:15:19.067Z,2.30
2018-06-17T18:17:47.997Z,2.60
2018-06-17T18:20:16.989Z,2.65
2018-06-17T18:22:45.899Z,2.00
2018-06-17T18:25:20.137Z,2.40
2018-06-17T18:27:54.441Z,2.17
2018-06-17T18:31:30.433Z,1.50
2018-06-17T18:34:04.751Z,2.20
2018-06-17T18:36:33.682Z,3.77
2018-06-17T18:39:03.518Z,3.30
2018-06-17T18:41:33.106Z,2.73
2018-06-17T18:44:01.984Z,2.43
2018-06-17T18:46:30.886Z,2.83
2018-06-17T18:49:00.087Z,1.97
2018-06-17T18:51:28.950Z,2.20
2018-06-17T18:53:57.841Z,1.80
2018-06-17T18:56:26.759Z,2.12
2018-06-17T18:58:55.637Z,2.98
2018-06-17T19:01:24.644Z,2.55
2018-06-17T19:03:53.646Z,2.50
2018-06-17T19:06:23.490Z,3.93
2018-06-17T19:08:57.726Z,3.90
2018-06-17T19:11:32.062Z,2.20
2018-06-17T19:14:06.258Z,2.75
2018-06-17T19:16:40.431Z,3.17
2018-06-17T19:19:09.486Z,2.60
2018-06-17T19:21:38.420Z,2.30
2018-06-17T19:24:07.390Z,2.50
2018-06-17T19:26:36.332Z,2.55
2018-06-17T19:29:05.252Z,2.50
2018-06-17T19:31:34.178Z,3.22
2018-06-17T19:34:03.131Z,4.60
2018-06-17T19:36:32.091Z,3.00
2018-06-17T19:39:01.352Z,4.45
2018-06-17T19:41:30.481Z,3.58
2018-06-17T19:43:59.507Z,2.45
2018-06-17T19:46:28.580Z,2.33
2018-06-17T19:48:57.472Z,6.72
2018-06-17T19:51:32.886Z,2.12
2018-06-17T19:54:07.043Z,1.92
2018-06-17T19:56:41.349Z,2.02
2018-06-17T19:59:15.715Z,2.35
2018-06-17T20:01:44.651Z,2.58
2018-06-17T20:04:13.594Z,2.20
2018-06-17T20:06:42.580Z,3.40
2018-06-17T20:09:12.618Z,2.10
2018-06-17T20:11:41.785Z,2.65
2018-06-17T20:14:10.699Z,2.10
2018-06-17T20:16:39.938Z,2.20
2018-06-17T20:19:08.914Z,4.08
2018-06-17T20:21:37.846Z,3.12
2018-06-17T20:24:06.828Z,3.22
2018-06-17T20:26:35.758Z,3.20
2018-06-17T20:29:05.236Z,2.40
2018-06-17T20:31:38.742Z,4.25
2018-06-17T20:34:13.222Z,2.27
2018-06-17T20:36:47.659Z,2.60
2018-06-17T20:39:23.506Z,2.77
2018-06-17T20:41:57.726Z,2.30
2018-06-17T20:44:26.779Z,5.03
2018-06-17T20:46:55.714Z,3.02
2018-06-17T20:49:25.635Z,3.83
2018-06-17T20:52:04.120Z,2.30
2018-06-17T20:54:33.121Z,2.50
2018-06-17T20:57:03.294Z,2.75
2018-06-17T20:59:32.279Z,2.80
2018-06-17T21:02:01.785Z,2.55
2018-06-17T21:04:30.924Z,4.75
2018-06-17T21:06:59.794Z,2.92
2018-06-17T21:09:28.754Z,2.80
2018-06-17T21:11:57.666Z,2.65
2018-06-17T21:14:26.566Z,2.92
2018-06-17T21:16:55.619Z,4.22
2018-06-17T21:19:29.843Z,3.05
2018-06-17T21:22:04.177Z,3.67
2018-06-17T21:24:38.503Z,2.30
2018-06-17T21:27:12.597Z,2.72
2018-06-17T21:29:41.526Z,3.02
2018-06-17T21:32:10.422Z,3.08
2018-06-17T21:34:39.610Z,3.20
2018-06-17T21:37:09.256Z,3.87
2018-06-17T21:39:38.392Z,3.25
2018-06-17T21:42:07.511Z,4.80
2018-06-17T21:44:36.642Z,4.15
2018-06-17T21:47:05.976Z,3.17
2018-06-17T21:49:35.157Z,2.60
2018-06-17T21:52:04.094Z,3.62
2018-06-17T21:54:32.992Z,3.05
2018-06-17T21:57:01.962Z,3.45
2018-06-17T21:59:30.791Z,3.40
2018-06-17T22:01:59.753Z,3.00
2018-06-17T22:04:34.365Z,2.47
2018-06-17T22:07:03.277Z,5.37
2018-06-17T22:09:37.494Z,2.70
2018-06-17T22:12:11.727Z,2.95
2018-06-17T22:14:45.974Z,3.50
2018-06-17T22:17:20.310Z,5.10
2018-06-17T22:19:49.722Z,2.87
2018-06-17T22:22:19.238Z,2.45
2018-06-17T22:24:48.142Z,2.70
2018-06-17T22:27:17.066Z,2.42
2018-06-17T22:29:46.062Z,3.05
2018-06-17T22:32:14.947Z,4.03
2018-06-17T22:34:43.883Z,3.75
2018-06-17T22:37:12.793Z,3.62
2018-06-17T22:39:41.386Z,3.08
2018-06-17T22:42:10.251Z,2.80
2018-06-17T22:44:39.183Z,4.25
2018-06-17T22:47:08.099Z,3.37
2018-06-17T22:49:37.003Z,3.92
2018-06-17T22:52:05.923Z,2.72
2018-06-17T22:54:46.023Z,2.83
2018-06-17T22:57:20.269Z,3.67
2018-06-17T22:59:54.594Z,3.20
2018-06-17T23:02:28.827Z,3.22
2018-06-17T23:05:03.083Z,3.10
2018-06-17T23:07:37.367Z,6.30
2018-06-17T23:10:08.025Z,4.28
2018-06-17T23:12:37.282Z,3.00
2018-06-17T23:15:06.338Z,3.92
2018-06-17T23:17:35.157Z,3.00
2018-06-17T23:20:04.546Z,4.47
2018-06-17T23:22:33.446Z,3.22
2018-06-17T23:25:02.326Z,2.60
2018-06-17T23:27:31.235Z,3.58
2018-06-17T23:30:00.390Z,3.30
2018-06-17T23:32:29.295Z,4.25
2018-06-17T23:34:58.185Z,3.35
2018-06-17T23:37:27.082Z,6.10
2018-06-17T23:39:55.995Z,3.27
2018-06-17T23:42:24.895Z,4.70
2018-06-17T23:44:53.809Z,3.58
2018-06-17T23:47:28.126Z,3.20
2018-06-17T23:50:02.508Z,5.30
2018-06-17T23:52:36.762Z,2.83
2018-06-17T23:55:11.163Z,4.37
2018-06-17T23:57:40.098Z,6.42
